| time (UTC) | temp F | wind direction | speed MPH | gust MPH | rain 1hr in | rain 24hr in | rain mn in | humidity % | barometer mb |
| 20260507202648 | 65 | 301 | 2.0 | 7.0 | 0.00 | 0.00 | 0.00 | 60 | 1009.8 |
| 20260507202144 | 65 | 353 | 1.0 | 3.0 | 0.00 | 0.00 | 0.00 | 66 | 1009.8 |
| 20260507201639 | 63 | 96 | 4.0 | 12.0 | 0.00 | 0.00 | 0.00 | 64 | 1009.9 |
| 20260507201137 | 64 | 130 | 3.0 | 9.0 | 0.00 | 0.00 | 0.00 | 64 | 1010.0 |
| 20260507200633 | 66 | 135 | 3.0 | 7.0 | 0.00 | 0.00 | 0.00 | 67 | 1009.9 |
| 20260507200129 | 65 | 324 | 0.0 | 5.0 | 0.00 | 0.00 | 0.00 | 65 | 1010.0 |
| 20260507195626 | 64 | 144 | 2.0 | 5.0 | 0.00 | 0.00 | 0.00 | 66 | 1009.9 |
| 20260507195123 | 64 | 298 | 3.0 | 4.0 | 0.00 | 0.00 | 0.00 | 63 | 1010.1 |
| 20260507194620 | 64 | 314 | 5.0 | 10.0 | 0.00 | 0.00 | 0.00 | 63 | 1010.1 |
| 20260507194115 | 63 | 296 | 6.0 | 9.0 | 0.00 | 0.00 | 0.00 | 65 | 1010.3 |
| 20260507193612 | 64 | 293 | 2.0 | 8.0 | 0.00 | 0.00 | 0.00 | 64 | 1010.5 |
| 20260507193109 | 65 | 19 | 2.0 | 5.0 | 0.00 | 0.00 | 0.00 | 67 | 1010.3 |
| 20260507192606 | 64 | 299 | 3.0 | 4.0 | 0.00 | 0.00 | 0.00 | 65 | 1010.2 |
| 20260507192103 | 62 | 143 | 2.0 | 9.0 | 0.00 | 0.00 | 0.00 | 69 | 1010.4 |
| 20260507191558 | 63 | 79 | 0.0 | 6.0 | 0.00 | 0.00 | 0.00 | 68 | 1010.4 |
| 20260507191055 | 64 | 313 | 2.0 | 5.0 | 0.00 | 0.00 | 0.00 | 67 | 1010.5 |
| 20260507190552 | 63 | 180 | 4.0 | 4.0 | 0.00 | 0.00 | 0.00 | 66 | 1010.6 |
| 20260507190051 | 62 | 216 | 2.0 | 9.0 | 0.00 | 0.00 | 0.00 | 71 | 1010.6 |
| 20260507185549 | 64 | 67 | 5.0 | 7.0 | 0.00 | 0.00 | 0.00 | 66 | 1010.5 |
| 20260507185045 | 62 | 233 | 0.0 | 3.0 | 0.00 | 0.00 | 0.00 | 69 | 1010.6 |
| 20260507184544 | 61 | 105 | 6.0 | 10.0 | 0.00 | 0.00 | 0.00 | 68 | 1011.0 |
| 20260507184041 | 61 | 182 | 2.0 | 8.0 | 0.00 | 0.00 | 0.00 | 70 | 1010.6 |
| 20260507183537 | 63 | 105 | 2.0 | 5.0 | 0.00 | 0.00 | 0.00 | 74 | 1010.9 |
| 20260507183034 | 63 | 100 | 4.0 | 6.0 | 0.00 | 0.00 | 0.00 | 69 | 1010.9 |
| 20260507182530 | 63 | 68 | 10.0 | 10.0 | 0.00 | 0.00 | 0.00 | 67 | 1010.8 |
| 20260507182026 | 62 | 268 | 0.0 | 7.0 | 0.00 | 0.00 | 0.00 | 75 | 1010.9 |
| 20260507181524 | 64 | 274 | 4.0 | 10.0 | 0.00 | 0.00 | 0.00 | 68 | 1010.9 |
| 20260507181020 | 61 | 167 | 5.0 | 9.0 | 0.00 | 0.00 | 0.00 | 72 | 1011.0 |
| 20260507180516 | 62 | 151 | 3.0 | 5.0 | 0.00 | 0.00 | 0.00 | 69 | 1010.9 |
| 20260507180013 | 61 | 218 | 2.0 | 3.0 | 0.00 | 0.00 | 0.00 | 72 | 1010.8 |
| 20260507175509 | 60 | 288 | 1.0 | 4.0 | 0.00 | 0.00 | 0.00 | 73 | 1011.1 |
| 20260507175007 | 59 | 97 | 2.0 | 6.0 | 0.00 | 0.00 | 0.00 | 74 | 1011.3 |
| 20260507174504 | 59 | 41 | 4.0 | 5.0 | 0.00 | 0.00 | 0.00 | 75 | 1011.3 |
| 20260507174002 | 60 | 86 | 1.0 | 5.0 | 0.00 | 0.00 | 0.00 | 72 | 1011.2 |
| 20260507173458 | 59 | 243 | 0.0 | 6.0 | 0.00 | 0.00 | 0.00 | 76 | 1011.2 |
| 20260507172955 | 58 | 105 | 6.0 | 8.0 | 0.00 | 0.00 | 0.00 | 75 | 1011.2 |
| 20260507172451 | 61 | 96 | 4.0 | 7.0 | 0.00 | 0.00 | 0.00 | 73 | 1011.2 |
| 20260507171948 | 61 | 89 | 3.0 | 4.0 | 0.00 | 0.00 | 0.00 | 77 | 1011.2 |
| 20260507171444 | 61 | 333 | 2.0 | 5.0 | 0.00 | 0.00 | 0.00 | 74 | 1011.2 |
| 20260507170941 | 60 | 225 | 1.0 | 4.0 | 0.00 | 0.00 | 0.00 | 73 | 1011.2 |
| 20260507170438 | 60 | 95 | 3.0 | 6.0 | 0.00 | 0.00 | 0.00 | 77 | 1011.3 |
| 20260507165934 | 58 | 290 | 4.0 | 5.0 | 0.00 | 0.00 | 0.00 | 76 | 1011.3 |
| 20260507165431 | 58 | 294 | 4.0 | 7.0 | 0.00 | 0.00 | 0.00 | 75 | 1011.2 |
| 20260507164926 | 59 | 339 | 3.0 | 6.0 | 0.00 | 0.00 | 0.00 | 76 | 1011.1 |
| 20260507164424 | 58 | 115 | 5.0 | 10.0 | 0.00 | 0.00 | 0.00 | 77 | 1011.1 |
| 20260507163920 | 58 | 256 | 3.0 | 6.0 | 0.00 | 0.00 | 0.00 | 77 | 1011.2 |
| 20260507163418 | 59 | 58 | 3.0 | 4.0 | 0.00 | 0.00 | 0.00 | 79 | 1011.1 |
| 20260507162915 | 58 | 289 | 4.0 | 6.0 | 0.00 | 0.00 | 0.00 | 77 | 1011.4 |
| 20260507162410 | 58 | 6 | 2.0 | 4.0 | 0.00 | 0.00 | 0.00 | 78 | 1011.3 |
| 20260507161908 | 55 | 98 | 2.0 | 5.0 | 0.00 | 0.00 | 0.00 | 81 | 1011.3 |
| 20260507161403 | 56 | 118 | 5.0 | 8.0 | 0.00 | 0.00 | 0.00 | 80 | 1011.3 |
| 20260507160900 | 58 | 46 | 4.0 | 5.0 | 0.00 | 0.00 | 0.00 | 80 | 1011.3 |
| 20260507160356 | 56 | 231 | 1.0 | 3.0 | 0.00 | 0.00 | 0.00 | 81 | 1011.2 |
| 20260507155852 | 56 | 349 | 2.0 | 4.0 | 0.00 | 0.00 | 0.00 | 82 | 1011.2 |
| 20260507155348 | 55 | 68 | 0.0 | 4.0 | 0.00 | 0.00 | 0.00 | 83 | 1011.4 |
| 20260507154845 | 55 | 239 | 0.0 | 3.0 | 0.00 | 0.00 | 0.00 | 84 | 1011.4 |
| 20260507154342 | 55 | 198 | 0.0 | 4.0 | 0.00 | 0.00 | 0.00 | 83 | 1011.3 |
| 20260507153839 | 54 | 69 | 0.0 | 4.0 | 0.00 | 0.00 | 0.00 | 84 | 1011.6 |
| 20260507153336 | 55 | 49 | 0.0 | 2.0 | 0.00 | 0.00 | 0.00 | 84 | 1011.5 |
| 20260507152832 | 54 | 41 | 1.0 | 3.0 | 0.00 | 0.00 | 0.00 | 86 | 1011.4 |
| 20260507152329 | 54 | 306 | 3.0 | 8.0 | 0.00 | 0.00 | 0.00 | 85 | 1011.5 |
| 20260507151825 | 54 | 46 | 1.0 | 3.0 | 0.00 | 0.00 | 0.00 | 85 | 1011.3 |
| 20260507151321 | 54 | 247 | 2.0 | 5.0 | 0.00 | 0.00 | 0.00 | 86 | 1011.4 |
| 20260507150818 | 54 | 84 | 0.0 | 3.0 | 0.00 | 0.00 | 0.00 | 87 | 1011.4 |
| 20260507150315 | 53 | 27 | 3.0 | 6.0 | 0.00 | 0.00 | 0.00 | 86 | 1011.4 |
| 20260507145811 | 53 | 290 | 0.0 | 2.0 | 0.00 | 0.00 | 0.00 | 87 | 1011.6 |
| 20260507145307 | 53 | 308 | 2.0 | 2.0 | 0.00 | 0.00 | 0.00 | 89 | 1011.5 |
| 20260507144805 | 53 | 22 | 1.0 | 3.0 | 0.00 | 0.00 | 0.00 | 91 | 1011.7 |
| 20260507144302 | 53 | 50 | 0.0 | 2.0 | 0.00 | 0.00 | 0.00 | 92 | 1011.3 |
| 20260507143758 | 53 | 38 | 0.0 | 3.0 | 0.00 | 0.00 | 0.00 | 92 | 1011.4 |
| 20260507143256 | 53 | 315 | 1.0 | 3.0 | 0.00 | 0.00 | 0.00 | 92 | 1011.3 |
| 20260507142752 | 53 | 15 | 0.0 | 2.0 | 0.00 | 0.00 | 0.00 | 92 | 1011.4 |
| 20260507142248 | 52 | 315 | 0.0 | 2.0 | 0.00 | 0.00 | 0.00 | 93 | 1011.3 |
| 20260507141745 | 52 | 15 | 0.0 | 2.0 | 0.00 | 0.00 | 0.00 | 93 | 1011.3 |
| 20260507141242 | 52 | 7 | 2.0 | 3.0 | 0.00 | 0.00 | 0.00 | 94 | 1011.3 |
| 20260507140738 | 52 | 335 | 0.0 | 3.0 | 0.00 | 0.00 | 0.00 | 93 | 1011.2 |
| 20260507140236 | 52 | 297 | 0.0 | 1.0 | 0.00 | 0.00 | 0.00 | 93 | 1011.1 |
| 20260507135732 | 52 | 36 | 1.0 | 2.0 | 0.00 | 0.00 | 0.00 | 94 | 1010.9 |
| 20260507135230 | 52 | 358 | 1.0 | 2.0 | 0.00 | 0.00 | 0.00 | 94 | 1011.0 |
| 20260507134726 | 51 | 44 | 0.0 | 1.0 | 0.00 | 0.00 | 0.00 | 94 | 1011.0 |
| 20260507134222 | 51 | 38 | 1.0 | 2.0 | 0.00 | 0.00 | 0.00 | 94 | 1010.8 |
| 20260507133718 | 51 | 76 | 0.0 | 2.0 | 0.00 | 0.00 | 0.00 | 94 | 1011.0 |
| 20260507133215 | 51 | 120 | 2.0 | 2.0 | 0.00 | 0.00 | 0.00 | 94 | 1010.9 |
| 20260507132713 | 51 | 110 | 1.0 | 2.0 | 0.00 | 0.00 | 0.00 | 95 | 1010.6 |
| 20260507132209 | 51 | 117 | 1.0 | 2.0 | 0.00 | 0.00 | 0.00 | 95 | 1011.0 |
| 20260507131706 | 51 | 94 | 1.0 | 2.0 | 0.00 | 0.00 | 0.00 | 95 | 1010.9 |
| 20260507131204 | 51 | 57 | 1.0 | 2.0 | 0.00 | 0.00 | 0.00 | 95 | 1011.1 |
| 20260507130700 | 51 | 70 | 1.0 | 2.0 | 0.00 | 0.00 | 0.00 | 95 | 1011.1 |
| 20260507130157 | 51 | 63 | 1.0 | 2.0 | 0.00 | 0.00 | 0.00 | 95 | 1011.2 |
| 20260507125656 | 51 | 39 | 0.0 | 1.0 | 0.00 | 0.00 | 0.00 | 94 | 1011.0 |
| 20260507125148 | 51 | 71 | 1.0 | 2.0 | 0.00 | 0.00 | 0.00 | 94 | 1011.1 |
| 20260507124644 | 51 | 81 | 0.0 | 2.0 | 0.00 | 0.00 | 0.00 | 94 | 1011.1 |
| 20260507124142 | 51 | 94 | 0.0 | 2.0 | 0.00 | 0.00 | 0.00 | 94 | 1011.0 |
| 20260507123640 | 51 | 89 | 0.0 | 1.0 | 0.00 | 0.00 | 0.00 | 94 | 1011.1 |
| 20260507123137 | 51 | 61 | 1.0 | 2.0 | 0.00 | 0.00 | 0.00 | 94 | 1011.1 |
| 20260507122632 | 51 | 61 | 0.0 | 2.0 | 0.00 | 0.00 | 0.00 | 94 | 1011.3 |
| 20260507122128 | 51 | 85 | 2.0 | 2.0 | 0.00 | 0.00 | 0.00 | 94 | 1011.1 |
| 20260507121624 | 51 | 60 | 0.0 | 2.0 | 0.00 | 0.00 | 0.00 | 94 | 1011.1 |
| 20260507121120 | 51 | 29 | 0.0 | 1.0 | 0.00 | 0.00 | 0.00 | 93 | 1011.2 |
| 20260507120616 | 51 | 89 | 1.0 | 2.0 | 0.00 | 0.00 | 0.00 | 93 | 1011.3 |
| 20260507120113 | 51 | 335 | 0.0 | 2.0 | 0.00 | 0.00 | 0.00 | 93 | 1011.3 |
| 20260507115609 | 51 | 85 | 0.0 | 2.0 | 0.00 | 0.00 | 0.00 | 93 | 1011.5 |
| 20260507115105 | 51 | 36 | 1.0 | 2.0 | 0.00 | 0.00 | 0.00 | 93 | 1011.4 |
| 20260507114601 | 51 | 65 | 0.0 | 2.0 | 0.00 | 0.00 | 0.00 | 93 | 1011.4 |
| 20260507114059 | 51 | 117 | 0.0 | 1.0 | 0.00 | 0.00 | 0.00 | 93 | 1011.4 |
| 20260507113555 | 51 | 89 | 0.0 | 2.0 | 0.00 | 0.00 | 0.00 | 93 | 1011.4 |
| 20260507113053 | 51 | 78 | 1.0 | 3.0 | 0.00 | 0.00 | 0.00 | 93 | 1011.5 |
| 20260507112551 | 52 | 122 | 1.0 | 2.0 | 0.00 | 0.00 | 0.00 | 93 | 1011.4 |
| 20260507112047 | 51 | 119 | 0.0 | 2.0 | 0.00 | 0.00 | 0.00 | 93 | 1011.5 |
| 20260507111544 | 51 | 89 | 0.0 | 2.0 | 0.00 | 0.00 | 0.00 | 93 | 1011.5 |
| 20260507111041 | 51 | 45 | 1.0 | 2.0 | 0.00 | 0.00 | 0.00 | 93 | 1011.6 |
| 20260507110537 | 52 | 46 | 1.0 | 3.0 | 0.00 | 0.00 | 0.00 | 93 | 1011.4 |
| 20260507110034 | 52 | 99 | 0.0 | 1.0 | 0.00 | 0.00 | 0.00 | 93 | 1011.7 |
| 20260507105531 | 51 | 311 | 0.0 | 2.0 | 0.00 | 0.00 | 0.00 | 93 | 1011.7 |
| 20260507105026 | 52 | 122 | 1.0 | 2.0 | 0.00 | 0.00 | 0.00 | 93 | 1011.5 |
| 20260507104524 | 52 | 53 | 0.0 | 3.0 | 0.00 | 0.00 | 0.00 | 93 | 1011.7 |
| 20260507104021 | 52 | 336 | 2.0 | 2.0 | 0.00 | 0.00 | 0.00 | 93 | 1011.7 |
| 20260507103517 | 52 | 37 | 0.0 | 3.0 | 0.00 | 0.00 | 0.00 | 93 | 1011.8 |
| 20260507103013 | 52 | 31 | 0.0 | 3.0 | 0.00 | 0.00 | 0.00 | 93 | 1011.8 |
| 20260507102510 | 52 | 301 | 0.0 | 2.0 | 0.00 | 0.00 | 0.00 | 92 | 1011.8 |
| 20260507102007 | 52 | 284 | 0.0 | 1.0 | 0.00 | 0.00 | 0.00 | 93 | 1011.8 |
| 20260507101502 | 52 | 296 | 0.0 | 3.0 | 0.00 | 0.00 | 0.00 | 93 | 1011.8 |
| 20260507100958 | 52 | 70 | 0.0 | 2.0 | 0.00 | 0.00 | 0.00 | 92 | 1011.8 |
| 20260507100450 | 52 | 106 | 2.0 | 3.0 | 0.00 | 0.00 | 0.00 | 92 | 1011.8 |
| 20260507095948 | 52 | 25 | 0.0 | 4.0 | 0.00 | 0.00 | 0.00 | 93 | 1011.9 |
| 20260507095446 | 52 | 297 | 0.0 | 3.0 | 0.00 | 0.00 | 0.00 | 93 | 1011.9 |
| 20260507094942 | 52 | 309 | 0.0 | 2.0 | 0.00 | 0.00 | 0.00 | 93 | 1012.0 |
| 20260507094438 | 52 | 60 | 0.0 | 2.0 | 0.00 | 0.00 | 0.00 | 93 | 1011.9 |
| 20260507093935 | 52 | 32 | 0.0 | 2.0 | 0.00 | 0.00 | 0.00 | 92 | 1012.1 |
| 20260507093433 | 52 | 72 | 2.0 | 3.0 | 0.00 | 0.00 | 0.00 | 93 | 1012.0 |
| 20260507092931 | 52 | 300 | 1.0 | 3.0 | 0.00 | 0.00 | 0.00 | 92 | 1011.9 |
| 20260507092427 | 52 | 68 | 1.0 | 2.0 | 0.00 | 0.00 | 0.00 | 93 | 1012.1 |
| 20260507091924 | 52 | 50 | 0.0 | 0.0 | 0.00 | 0.00 | 0.00 | 93 | 1012.1 |
| 20260507091421 | 52 | 109 | 1.0 | 3.0 | 0.00 | 0.00 | 0.00 | 92 | 1012.3 |
| 20260507090916 | 52 | 309 | 2.0 | 3.0 | 0.00 | 0.00 | 0.00 | 93 | 1012.3 |
| 20260507090413 | 52 | 288 | 2.0 | 3.0 | 0.00 | 0.00 | 0.00 | 93 | 1012.3 |
| 20260507085909 | 52 | 62 | 0.0 | 1.0 | 0.00 | 0.00 | 0.00 | 93 | 1012.3 |
| 20260507085406 | 52 | 269 | 0.0 | 3.0 | 0.00 | 0.00 | 0.00 | 93 | 1012.2 |
| 20260507084904 | 52 | 25 | 0.0 | 3.0 | 0.00 | 0.00 | 0.00 | 93 | 1012.3 |
| 20260507084400 | 52 | 347 | 1.0 | 2.0 | 0.00 | 0.00 | 0.00 | 92 | 1012.2 |
| 20260507083857 | 52 | 1 | 2.0 | 4.0 | 0.00 | 0.00 | 0.00 | 92 | 1012.4 |
| 20260507083353 | 52 | 300 | 2.0 | 3.0 | 0.00 | 0.00 | 0.00 | 92 | 1012.2 |
| 20260507082850 | 52 | 41 | 0.0 | 2.0 | 0.00 | 0.00 | 0.00 | 92 | 1012.2 |
| 20260507082345 | 52 | 312 | 1.0 | 3.0 | 0.00 | 0.00 | 0.00 | 92 | 1012.4 |
| 20260507081843 | 52 | 7 | 1.0 | 2.0 | 0.00 | 0.00 | 0.00 | 92 | 1012.3 |
| 20260507081339 | 52 | 93 | 1.0 | 2.0 | 0.00 | 0.00 | 0.00 | 92 | 1012.2 |
| 20260507080836 | 52 | 115 | 0.0 | 1.0 | 0.00 | 0.00 | 0.00 | 92 | 1012.2 |
| 20260507080332 | 52 | 88 | 2.0 | 3.0 | 0.00 | 0.00 | 0.00 | 93 | 1012.2 |
| 20260507075828 | 51 | 8 | 1.0 | 2.0 | 0.00 | 0.00 | 0.00 | 92 | 1012.1 |
| 20260507075324 | 52 | 45 | 0.0 | 3.0 | 0.00 | 0.00 | 0.00 | 92 | 1012.4 |
| 20260507074820 | 51 | 33 | 0.0 | 3.0 | 0.00 | 0.00 | 0.00 | 92 | 1012.3 |
| 20260507074318 | 51 | 75 | 1.0 | 3.0 | 0.00 | 0.00 | 0.00 | 92 | 1012.3 |
| 20260507073815 | 51 | 151 | 0.0 | 2.0 | 0.00 | 0.00 | 0.00 | 92 | 1012.4 |
| 20260507073312 | 51 | 77 | 0.0 | 3.0 | 0.00 | 0.00 | 0.00 | 93 | 1012.4 |
| 20260507072809 | 51 | 122 | 1.0 | 3.0 | 0.00 | 0.00 | 0.00 | 92 | 1012.3 |
| 20260507072308 | 51 | 322 | 1.0 | 2.0 | 0.00 | 0.00 | 0.00 | 92 | 1012.3 |
| 20260507071804 | 51 | 286 | 1.0 | 2.0 | 0.00 | 0.00 | 0.00 | 92 | 1012.4 |
| 20260507071300 | 51 | 321 | 0.0 | 4.0 | 0.00 | 0.00 | 0.00 | 92 | 1012.3 |
| 20260507070757 | 51 | 73 | 0.0 | 4.0 | 0.00 | 0.00 | 0.00 | 92 | 1012.2 |
| 20260507070254 | 51 | 321 | 2.0 | 3.0 | 0.00 | 0.00 | 0.00 | 92 | 1012.3 |
| 20260507065751 | 51 | 51 | 1.0 | 2.0 | 0.00 | 0.00 | 0.00 | 92 | 1012.2 |
| 20260507065247 | 51 | 224 | 0.0 | 3.0 | 0.00 | 0.00 | 0.00 | 93 | 1012.2 |
| 20260507064745 | 51 | 42 | 2.0 | 2.0 | 0.00 | 0.00 | 0.00 | 93 | 1012.2 |
| 20260507064243 | 51 | 335 | 2.0 | 5.0 | 0.00 | 0.00 | 0.00 | 93 | 1012.2 |
| 20260507063740 | 50 | 105 | 2.0 | 3.0 | 0.00 | 0.00 | 0.00 | 93 | 1012.5 |
| 20260507063237 | 50 | 82 | 2.0 | 4.0 | 0.00 | 0.00 | 0.00 | 93 | 1012.0 |
| 20260507062734 | 50 | 57 | 0.0 | 2.0 | 0.00 | 0.00 | 0.00 | 94 | 1012.1 |
| 20260507062231 | 50 | 234 | 0.0 | 3.0 | 0.00 | 0.00 | 0.00 | 93 | 1012.2 |
| 20260507061730 | 50 | 27 | 0.0 | 3.0 | 0.00 | 0.00 | 0.00 | 93 | 1012.4 |
| 20260507061227 | 50 | 89 | 0.0 | 3.0 | 0.00 | 0.00 | 0.00 | 93 | 1012.2 |
| 20260507060725 | 50 | 24 | 1.0 | 3.0 | 0.00 | 0.00 | 0.00 | 93 | 1012.2 |
| 20260507060221 | 50 | 89 | 2.0 | 2.0 | 0.00 | 0.00 | 0.00 | 93 | 1012.1 |
| 20260507055718 | 50 | 75 | 0.0 | 3.0 | 0.00 | 0.00 | 0.00 | 94 | 1012.3 |
| 20260507055213 | 50 | 120 | 2.0 | 3.0 | 0.00 | 0.00 | 0.00 | 94 | 1012.2 |
| 20260507054709 | 50 | 119 | 1.0 | 4.0 | 0.00 | 0.00 | 0.00 | 93 | 1012.1 |
| 20260507054207 | 50 | 125 | 0.0 | 2.0 | 0.00 | 0.00 | 0.00 | 92 | 1012.1 |
| 20260507053704 | 50 | 282 | 2.0 | 3.0 | 0.00 | 0.00 | 0.00 | 92 | 1011.9 |
| 20260507053202 | 50 | 89 | 0.0 | 3.0 | 0.00 | 0.00 | 0.00 | 92 | 1012.2 |
| 20260507052701 | 50 | 170 | 0.0 | 4.0 | 0.00 | 0.00 | 0.00 | 92 | 1012.3 |
| 20260507052156 | 51 | 100 | 2.0 | 5.0 | 0.00 | 0.00 | 0.00 | 91 | 1012.2 |
| 20260507051654 | 51 | 80 | 3.0 | 5.0 | 0.00 | 0.00 | 0.00 | 91 | 1012.3 |
| 20260507051150 | 51 | 253 | 0.0 | 6.0 | 0.00 | 0.00 | 0.00 | 92 | 1012.3 |
| 20260507050647 | 51 | 285 | 3.0 | 8.0 | 0.00 | 0.00 | 0.00 | 91 | 1012.3 |
| 20260507050144 | 51 | 232 | 2.0 | 7.0 | 0.00 | 0.00 | 0.00 | 91 | 1012.2 |
| 20260507045641 | 51 | 29 | 4.0 | 8.0 | 0.00 | 0.00 | 0.00 | 92 | 1012.3 |
| 20260507045137 | 51 | 28 | 0.0 | 5.0 | 0.00 | 0.00 | 0.00 | 92 | 1012.0 |
| 20260507044635 | 51 | 84 | 1.0 | 6.0 | 0.00 | 0.00 | 0.00 | 91 | 1012.2 |
| 20260507044131 | 51 | 54 | 3.0 | 4.0 | 0.00 | 0.00 | 0.00 | 92 | 1012.0 |
| 20260507043627 | 51 | 104 | 2.0 | 4.0 | 0.00 | 0.00 | 0.00 | 92 | 1011.9 |
| 20260507043124 | 51 | 52 | 0.0 | 8.0 | 0.00 | 0.00 | 0.00 | 91 | 1012.2 |
| 20260507042621 | 52 | 71 | 4.0 | 7.0 | 0.00 | 0.00 | 0.00 | 91 | 1012.0 |
| 20260507042116 | 51 | 63 | 2.0 | 4.0 | 0.00 | 0.00 | 0.00 | 91 | 1012.0 |
| 20260507041613 | 51 | 268 | 1.0 | 6.0 | 0.00 | 0.00 | 0.00 | 91 | 1011.8 |
| 20260507041110 | 52 | 306 | 2.0 | 5.0 | 0.00 | 0.00 | 0.00 | 91 | 1011.8 |
| 20260507040607 | 52 | 310 | 3.0 | 5.0 | 0.00 | 0.00 | 0.00 | 91 | 1011.7 |
| 20260507035558 | 52 | 338 | 2.0 | 3.0 | 0.00 | 0.00 | 0.00 | 91 | 1011.5 |
| 20260507035055 | 52 | 117 | 1.0 | 4.0 | 0.00 | 0.00 | 0.00 | 90 | 1011.6 |
| 20260507034552 | 52 | 68 | 3.0 | 6.0 | 0.00 | 0.00 | 0.00 | 90 | 1011.6 |
| 20260507034050 | 53 | 136 | 2.0 | 7.0 | 0.00 | 0.00 | 0.00 | 90 | 1011.6 |
| 20260507033548 | 53 | 312 | 3.0 | 14.0 | 0.00 | 0.00 | 0.00 | 89 | 1011.4 |
| 20260507033045 | 53 | 355 | 2.0 | 6.0 | 0.00 | 0.00 | 0.00 | 89 | 1011.4 |
| 20260507032542 | 53 | 332 | 2.0 | 7.0 | 0.00 | 0.00 | 0.00 | 89 | 1011.4 |
| 20260507032038 | 53 | 280 | 3.0 | 6.0 | 0.00 | 0.00 | 0.00 | 89 | 1011.2 |
| 20260507031534 | 54 | 69 | 4.0 | 5.0 | 0.00 | 0.00 | 0.00 | 88 | 1011.1 |
| 20260507031032 | 54 | 56 | 0.0 | 7.0 | 0.00 | 0.00 | 0.00 | 88 | 1011.1 |
| 20260507030528 | 55 | 247 | 1.0 | 5.0 | 0.00 | 0.00 | 0.00 | 87 | 1011.0 |
| 20260507030026 | 55 | 294 | 5.0 | 6.0 | 0.00 | 0.00 | 0.00 | 87 | 1011.0 |
| 20260507025523 | 55 | 26 | 1.0 | 7.0 | 0.00 | 0.00 | 0.00 | 86 | 1011.0 |
| 20260507025020 | 55 | 335 | 2.0 | 6.0 | 0.00 | 0.00 | 0.00 | 86 | 1011.0 |
| 20260507024518 | 56 | 268 | 3.0 | 5.0 | 0.00 | 0.00 | 0.00 | 86 | 1011.0 |
| 20260507024014 | 56 | 312 | 1.0 | 5.0 | 0.00 | 0.00 | 0.00 | 85 | 1011.0 |
| 20260507023510 | 57 | 119 | 2.0 | 7.0 | 0.00 | 0.00 | 0.00 | 84 | 1011.0 |
| 20260507023003 | 57 | 271 | 3.0 | 5.0 | 0.00 | 0.00 | 0.00 | 83 | 1011.1 |
| 20260507022459 | 57 | 69 | 1.0 | 3.0 | 0.00 | 0.00 | 0.00 | 84 | 1011.1 |
| 20260507021954 | 57 | 5 | 3.0 | 6.0 | 0.00 | 0.00 | 0.00 | 82 | 1011.1 |
| 20260507021450 | 58 | 338 | 4.0 | 6.0 | 0.00 | 0.00 | 0.00 | 82 | 1011.1 |
| 20260507020947 | 58 | 23 | 1.0 | 10.0 | 0.00 | 0.00 | 0.00 | 82 | 1011.0 |
| 20260507020444 | 58 | 299 | 2.0 | 7.0 | 0.00 | 0.00 | 0.00 | 81 | 1011.1 |
| 20260507015941 | 59 | 333 | 6.0 | 9.0 | 0.00 | 0.00 | 0.00 | 80 | 1011.0 |
| 20260507015440 | 59 | 321 | 1.0 | 4.0 | 0.00 | 0.00 | 0.00 | 80 | 1011.2 |
| 20260507014936 | 60 | 0 | 3.0 | 12.0 | 0.00 | 0.00 | 0.00 | 79 | 1011.0 |
| 20260507014433 | 60 | 331 | 2.0 | 6.0 | 0.00 | 0.00 | 0.00 | 80 | 1011.0 |
| 20260507013929 | 60 | 275 | 3.0 | 6.0 | 0.00 | 0.00 | 0.00 | 79 | 1011.2 |
| 20260507013426 | 60 | 305 | 2.0 | 5.0 | 0.00 | 0.00 | 0.00 | 80 | 1011.0 |
| 20260507012924 | 60 | 338 | 5.0 | 9.0 | 0.00 | 0.00 | 0.00 | 79 | 1011.1 |
| 20260507012420 | 60 | 160 | 0.0 | 7.0 | 0.00 | 0.00 | 0.00 | 80 | 1010.9 |
| 20260507011916 | 60 | 331 | 5.0 | 8.0 | 0.00 | 0.00 | 0.00 | 78 | 1011.1 |
| 20260507011413 | 60 | 150 | 3.0 | 7.0 | 0.00 | 0.00 | 0.00 | 78 | 1011.2 |
| 20260507010908 | 61 | 289 | 2.0 | 11.0 | 0.00 | 0.00 | 0.00 | 77 | 1010.9 |
| 20260507010403 | 62 | 86 | 2.0 | 8.0 | 0.00 | 0.00 | 0.00 | 76 | 1011.0 |
| 20260507005901 | 62 | 284 | 2.0 | 6.0 | 0.00 | 0.00 | 0.00 | 76 | 1011.1 |
| 20260507005357 | 62 | 238 | 2.0 | 5.0 | 0.00 | 0.00 | 0.00 | 76 | 1011.2 |
| 20260507004854 | 62 | 333 | 4.0 | 11.0 | 0.00 | 0.00 | 0.00 | 75 | 1011.1 |
| 20260507004351 | 62 | 278 | 1.0 | 13.0 | 0.00 | 0.00 | 0.00 | 75 | 1011.0 |
| 20260507003850 | 63 | 62 | 2.0 | 7.0 | 0.00 | 0.00 | 0.00 | 75 | 1010.9 |
| 20260507003344 | 63 | 306 | 2.0 | 6.0 | 0.00 | 0.00 | 0.00 | 74 | 1011.0 |
| 20260507002839 | 64 | 262 | 3.0 | 4.0 | 0.00 | 0.00 | 0.00 | 75 | 1011.0 |
| 20260507002335 | 64 | 292 | 3.0 | 7.0 | 0.00 | 0.00 | 0.00 | 74 | 1011.0 |
| 20260507001833 | 64 | 203 | 2.0 | 7.0 | 0.00 | 0.00 | 0.00 | 74 | 1010.8 |
| 20260507001329 | 64 | 297 | 5.0 | 7.0 | 0.00 | 0.00 | 0.00 | 73 | 1011.0 |
| 20260507000826 | 65 | 296 | 1.0 | 7.0 | 0.00 | 0.00 | 0.00 | 74 | 1010.8 |
| 20260507000321 | 65 | 14 | 2.0 | 7.0 | 0.00 | 0.00 | 0.00 | 74 | 1010.9 |
| 20260506235818 | 65 | 198 | 1.0 | 8.0 | 0.00 | 0.00 | 0.00 | 73 | 1010.9 |
| 20260506235314 | 65 | 294 | 3.0 | 7.0 | 0.00 | 0.00 | 0.00 | 72 | 1011.0 |
| 20260506234805 | 66 | 285 | 1.0 | 7.0 | 0.00 | 0.00 | 0.00 | 72 | 1010.8 |
| 20260506234303 | 66 | 274 | 3.0 | 4.0 | 0.00 | 0.00 | 0.00 | 73 | 1010.8 |
| 20260506233800 | 66 | 277 | 3.0 | 8.0 | 0.00 | 0.00 | 0.00 | 72 | 1010.9 |
| 20260506233256 | 67 | 272 | 3.0 | 8.0 | 0.00 | 0.00 | 0.00 | 72 | 1010.9 |
| 20260506232753 | 66 | 289 | 5.0 | 9.0 | 0.00 | 0.00 | 0.00 | 72 | 1010.9 |
| 20260506232248 | 67 | 310 | 5.0 | 9.0 | 0.00 | 0.00 | 0.00 | 71 | 1010.9 |
| 20260506231745 | 68 | 46 | 3.0 | 9.0 | 0.00 | 0.00 | 0.00 | 71 | 1011.0 |
| 20260506231244 | 68 | 329 | 2.0 | 7.0 | 0.00 | 0.00 | 0.00 | 69 | 1011.0 |
| 20260506230740 | 69 | 91 | 2.0 | 4.0 | 0.00 | 0.00 | 0.00 | 71 | 1010.8 |
| 20260506230237 | 69 | 324 | 4.0 | 6.0 | 0.00 | 0.00 | 0.00 | 71 | 1010.8 |
| 20260506225734 | 70 | 314 | 3.0 | 9.0 | 0.00 | 0.00 | 0.00 | 66 | 1010.9 |
| 20260506225231 | 70 | 308 | 2.0 | 5.0 | 0.00 | 0.00 | 0.00 | 68 | 1011.0 |
| 20260506224727 | 71 | 322 | 3.0 | 3.0 | 0.00 | 0.00 | 0.00 | 66 | 1010.8 |
| 20260506224224 | 70 | 266 | 1.0 | 6.0 | 0.00 | 0.00 | 0.00 | 65 | 1010.8 |
| 20260506223720 | 71 | 87 | 3.0 | 5.0 | 0.00 | 0.00 | 0.00 | 63 | 1011.0 |
| 20260506223216 | 71 | 61 | 4.0 | 5.0 | 0.00 | 0.00 | 0.00 | 63 | 1011.0 |
| 20260506222714 | 71 | 285 | 2.0 | 5.0 | 0.00 | 0.00 | 0.00 | 66 | 1011.0 |
| 20260506222209 | 69 | 226 | 0.0 | 7.0 | 0.00 | 0.00 | 0.00 | 67 | 1011.0 |
| 20260506221707 | 71 | 306 | 2.0 | 6.0 | 0.00 | 0.00 | 0.00 | 67 | 1011.2 |
| 20260506221205 | 71 | 281 | 5.0 | 6.0 | 0.00 | 0.00 | 0.00 | 66 | 1011.2 |
| 20260506220702 | 71 | 165 | 3.0 | 6.0 | 0.00 | 0.00 | 0.00 | 65 | 1011.2 |
| 20260506220157 | 72 | 9 | 2.0 | 5.0 | 0.00 | 0.00 | 0.00 | 65 | 1011.3 |
| 20260506215653 | 71 | 284 | 0.0 | 4.0 | 0.00 | 0.00 | 0.00 | 65 | 1011.3 |
| 20260506215148 | 71 | 24 | 3.0 | 6.0 | 0.00 | 0.00 | 0.00 | 64 | 1011.3 |
| 20260506214646 | 71 | 354 | 2.0 | 4.0 | 0.00 | 0.00 | 0.00 | 65 | 1011.3 |
| 20260506214143 | 72 | 268 | 2.0 | 5.0 | 0.00 | 0.00 | 0.00 | 64 | 1011.3 |
| 20260506213642 | 70 | 289 | 2.0 | 3.0 | 0.00 | 0.00 | 0.00 | 71 | 1011.2 |
| 20260506213139 | 69 | 326 | 2.0 | 5.0 | 0.00 | 0.00 | 0.00 | 69 | 1011.3 |
| 20260506212636 | 68 | 271 | 1.0 | 2.0 | 0.00 | 0.00 | 0.00 | 71 | 1011.3 |
| 20260506212130 | 68 | 259 | 2.0 | 4.0 | 0.00 | 0.00 | 0.00 | 69 | 1011.3 |
| 20260506211626 | 68 | 164 | 3.0 | 5.0 | 0.00 | 0.00 | 0.00 | 71 | 1011.2 |
| 20260506211123 | 70 | 105 | 2.0 | 3.0 | 0.00 | 0.00 | 0.00 | 70 | 1011.2 |
| 20260506210620 | 69 | 255 | 2.0 | 8.0 | 0.00 | 0.00 | 0.00 | 71 | 1011.2 |
| 20260506210117 | 68 | 306 | 2.0 | 5.0 | 0.00 | 0.00 | 0.00 | 73 | 1011.2 |
| 20260506205614 | 67 | 186 | 1.0 | 3.0 | 0.00 | 0.00 | 0.00 | 71 | 1011.4 |
| 20260506205108 | 67 | 269 | 2.0 | 5.0 | 0.00 | 0.00 | 0.00 | 73 | 1011.6 |
| 20260506204607 | 65 | 113 | 1.0 | 3.0 | 0.00 | 0.00 | 0.00 | 75 | 1011.6 |
| 20260506204103 | 65 | 112 | 3.0 | 5.0 | 0.00 | 0.00 | 0.00 | 76 | 1011.5 |
| 20260506203602 | 65 | 107 | 1.0 | 5.0 | 0.00 | 0.00 | 0.00 | 77 | 1011.5 |
| 20260506203058 | 65 | 321 | 1.0 | 5.0 | 0.00 | 0.00 | 0.00 | 76 | 1011.9 |